Time;durP1;ratioP1;P1;durP2;ratioP2;P2;SDS_P1;SDS_P2;PMS_P1;PMS_P2;Temp;Humidity;BMP_temperature;BMP_pressure;BME280_temperature;BME280_humidity;BME280_pressure;Samples;Min_cycle;Max_cycle;Signal;HPM_P1;HPM_P2
2022/11/01 00:00:09;;;;;;;10.60;6.20;;;;;;;;;;5055869;28;20227;-68
2022/11/01 00:02:35;;;;;;;20.27;7.83;;;;;;;;;;5056198;28;20281;-69
2022/11/01 00:05:02;;;;;;;16.50;8.17;;;;;;;;;;5054258;28;20217;-68
2022/11/01 00:07:28;;;;;;;15.53;7.43;;;;;;;;;;5055821;28;20548;-68
2022/11/01 00:09:54;;;;;;;18.37;7.60;;;;;;;;;;5055571;28;20178;-68
2022/11/01 00:12:20;;;;;;;16.73;8.10;;;;;;;;;;5055758;28;20581;-68
2022/11/01 00:14:46;;;;;;;15.60;6.97;;;;;;;;;;5055580;28;20187;-69
2022/11/01 00:17:12;;;;;;;15.83;8.13;;;;;;;;;;5054209;28;20603;-68
2022/11/01 00:19:38;;;;;;;18.97;7.83;;;;;;;;;;5055890;28;20185;-68
2022/11/01 00:22:03;;;;;;;19.77;8.83;;;;;;;;;;5053901;28;20210;-68
2022/11/01 00:24:30;;;;;;;17.13;8.27;;;;;;;;;;5055576;28;20206;-68
2022/11/01 00:26:56;;;;;;;16.23;7.90;;;;;;;;;;5054062;28;20701;-69
2022/11/01 00:29:22;;;;;;;14.70;7.00;;;;;;;;;;5055518;28;20183;-69
2022/11/01 00:31:48;;;;;;;10.83;6.87;;;;;;;;;;5055356;28;20221;-68
2022/11/01 00:34:15;;;;;;;15.10;6.70;;;;;;;;;;5055164;28;20269;-68
2022/11/01 00:36:41;;;;;;;15.13;6.57;;;;;;;;;;5055123;28;20178;-69
2022/11/01 00:39:07;;;;;;;9.47;6.40;;;;;;;;;;5055671;28;20175;-68
2022/11/01 00:41:33;;;;;;;13.53;6.50;;;;;;;;;;5055098;28;20179;-68
2022/11/01 00:44:00;;;;;;;15.10;6.73;;;;;;;;;;5054926;28;20618;-69
2022/11/01 00:46:25;;;;;;;10.83;6.20;;;;;;;;;;5053693;28;20183;-68
2022/11/01 00:48:51;;;;;;;10.70;6.10;;;;;;;;;;5054906;28;20185;-68
2022/11/01 00:51:17;;;;;;;14.03;5.90;;;;;;;;;;5054793;28;20178;-68
2022/11/01 00:53:43;;;;;;;15.80;6.90;;;;;;;;;;5053570;28;20202;-68
2022/11/01 00:56:09;;;;;;;15.57;6.17;;;;;;;;;;5055061;28;20710;-69
2022/11/01 00:58:35;;;;;;;9.00;6.07;;;;;;;;;;5054644;28;20261;-69
2022/11/01 01:01:01;;;;;;;19.53;6.37;;;;;;;;;;5054643;28;20210;-69
2022/11/01 01:03:27;;;;;;;19.00;6.47;;;;;;;;;;5054409;28;20198;-69
2022/11/01 01:05:53;;;;;;;17.93;6.50;;;;;;;;;;5054531;28;20170;-69
2022/11/01 01:08:19;;;;;;;10.70;6.17;;;;;;;;;;5054741;28;20250;-70
2022/11/01 01:10:45;;;;;;;8.53;5.90;;;;;;;;;;5053146;28;20191;-68
2022/11/01 01:13:11;;;;;;;12.33;5.87;;;;;;;;;;5052924;28;20218;-68
2022/11/01 01:15:38;;;;;;;12.03;6.33;;;;;;;;;;5053704;28;20186;-68
2022/11/01 01:18:04;;;;;;;9.00;5.60;;;;;;;;;;5054882;28;20236;-68
2022/11/01 01:20:30;;;;;;;13.53;5.77;;;;;;;;;;5054736;28;20249;-68
2022/11/01 01:22:56;;;;;;;13.43;6.03;;;;;;;;;;5054169;28;20697;-68
2022/11/01 01:25:22;;;;;;;8.73;5.63;;;;;;;;;;5054381;28;20209;-68
2022/11/01 01:27:48;;;;;;;14.37;5.37;;;;;;;;;;5055692;28;20170;-68
2022/11/01 01:30:15;;;;;;;11.60;6.17;;;;;;;;;;5059218;28;20269;-68
2022/11/01 01:32:41;;;;;;;10.60;6.27;;;;;;;;;;5059409;28;20197;-68
2022/11/01 01:35:07;;;;;;;12.27;5.77;;;;;;;;;;5057156;28;20643;-68
2022/11/01 01:37:33;;;;;;;8.73;5.83;;;;;;;;;;5055449;28;20174;-68
2022/11/01 01:39:59;;;;;;;12.00;5.50;;;;;;;;;;5052662;28;20552;-68
2022/11/01 01:42:25;;;;;;;10.27;5.90;;;;;;;;;;5052565;28;20210;-68
2022/11/01 01:45:11;;;;;;;10.83;5.80;;;;;;;;;;5053833;28;20285;-68
2022/11/01 01:47:38;;;;;;;16.23;6.00;;;;;;;;;;5053634;28;20178;-68
2022/11/01 01:50:12;;;;;;;16.30;5.87;;;;;;;;;;5053737;28;20175;-69
2022/11/01 01:52:42;;;;;;;9.77;5.33;;;;;;;;;;5053708;28;20217;-68
2022/11/01 01:55:09;;;;;;;10.57;5.80;;;;;;;;;;5052359;28;20178;-68
2022/11/01 01:57:36;;;;;;;13.70;6.10;;;;;;;;;;5052422;28;20186;-67
2022/11/01 02:00:04;;;;;;;10.57;6.10;;;;;;;;;;5052413;28;20722;-68
2022/11/01 02:02:30;;;;;;;11.10;5.70;;;;;;;;;;5052237;28;20203;-68
2022/11/01 02:05:18;;;;;;;14.07;5.80;;;;;;;;;;5053584;28;20210;-69
2022/11/01 02:07:44;;;;;;;12.07;6.20;;;;;;;;;;5053798;28;20159;-68
2022/11/01 02:10:11;;;;;;;10.57;5.80;;;;;;;;;;5052552;28;20183;-67
2022/11/01 02:12:37;;;;;;;12.93;5.93;;;;;;;;;;5053310;28;20638;-68
2022/11/01 02:15:03;;;;;;;8.50;5.27;;;;;;;;;;5053679;28;20232;-68
2022/11/01 02:17:38;;;;;;;13.57;5.83;;;;;;;;;;5053276;28;20563;-68
2022/11/01 02:20:07;;;;;;;13.40;6.17;;;;;;;;;;5053609;28;20174;-68
2022/11/01 02:23:01;;;;;;;10.53;6.20;;;;;;;;;;5053535;28;20198;-68
2022/11/01 02:25:45;;;;;;;9.20;6.07;;;;;;;;;;5053158;28;20543;-68
2022/11/01 02:28:21;;;;;;;16.30;6.17;;;;;;;;;;5051999;28;20178;-68
2022/11/01 02:30:56;;;;;;;9.87;5.60;;;;;;;;;;5051978;28;20265;-68
2022/11/01 02:33:33;;;;;;;10.50;5.90;;;;;;;;;;5053235;28;20201;-68
2022/11/01 02:36:03;;;;;;;13.17;6.30;;;;;;;;;;5052047;28;20564;-68
2022/11/01 02:38:34;;;;;;;8.50;5.63;;;;;;;;;;5053373;28;20179;-68
2022/11/01 02:41:01;;;;;;;14.37;6.23;;;;;;;;;;5053343;28;20249;-68
2022/11/01 02:43:32;;;;;;;13.03;6.30;;;;;;;;;;5052843;28;20580;-68
2022/11/01 02:46:59;;;;;;;17.13;6.90;;;;;;;;;;5051808;28;20177;-68
2022/11/01 02:48:47;;;;;;;12.73;7.03;;;;;;;;;;5052929;28;20661;-68
2022/11/01 02:51:13;;;;;;;14.17;6.70;;;;;;;;;;5051779;28;20178;-68
2022/11/01 02:53:39;;;;;;;10.63;6.53;;;;;;;;;;5052869;28;20199;-69
2022/11/01 02:56:05;;;;;;;13.80;6.80;;;;;;;;;;5052983;28;20190;-68
2022/11/01 02:58:31;;;;;;;13.13;6.00;;;;;;;;;;5051587;28;20174;-68
2022/11/01 03:00:57;;;;;;;16.03;7.27;;;;;;;;;;5053019;28;20179;-68
2022/11/01 03:03:23;;;;;;;15.13;8.43;;;;;;;;;;5051424;28;20198;-69
2022/11/01 03:05:49;;;;;;;13.57;7.60;;;;;;;;;;5053268;28;20170;-68
2022/11/01 03:08:17;;;;;;;17.27;8.20;;;;;;;;;;5053289;28;20186;-68
2022/11/01 03:10:43;;;;;;;18.13;7.53;;;;;;;;;;5051689;28;20175;-68
2022/11/01 03:13:09;;;;;;;13.93;8.00;;;;;;;;;;5052824;28;20210;-68
2022/11/01 03:15:40;;;;;;;13.60;6.90;;;;;;;;;;5053119;28;20194;-68
2022/11/01 03:18:18;;;;;;;9.93;5.97;;;;;;;;;;5052967;28;20174;-69
2022/11/01 03:20:51;;;;;;;15.70;6.57;;;;;;;;;;5053009;28;20699;-69
2022/11/01 03:23:25;;;;;;;12.80;6.17;;;;;;;;;;5052894;28;20190;-68
2022/11/01 03:25:53;;;;;;;12.13;5.67;;;;;;;;;;5053054;28;20171;-68
2022/11/01 03:28:21;;;;;;;10.77;5.17;;;;;;;;;;5052653;28;20171;-69
2022/11/01 03:30:54;;;;;;;11.33;5.57;;;;;;;;;;5051519;28;20178;-70
2022/11/01 03:33:22;;;;;;;10.83;5.77;;;;;;;;;;5052654;28;20277;-69
2022/11/01 03:35:49;;;;;;;11.23;5.97;;;;;;;;;;5051268;28;20240;-69
2022/11/01 03:38:19;;;;;;;8.87;4.50;;;;;;;;;;5051818;28;20195;-69
2022/11/01 03:40:49;;;;;;;8.33;5.60;;;;;;;;;;5056269;28;20183;-68
2022/11/01 03:43:16;;;;;;;12.40;5.37;;;;;;;;;;5054842;28;20229;-68
2022/11/01 03:45:42;;;;;;;10.93;5.37;;;;;;;;;;5054954;28;20198;-68
2022/11/01 03:48:09;;;;;;;8.67;5.23;;;;;;;;;;5056862;28;20255;-68
2022/11/01 03:50:35;;;;;;;11.40;5.47;;;;;;;;;;5054911;28;20224;-68
2022/11/01 03:53:01;;;;;;;13.20;5.47;;;;;;;;;;5054763;28;20201;-68
2022/11/01 03:55:27;;;;;;;8.43;5.53;;;;;;;;;;5056129;28;20182;-68
2022/11/01 03:57:54;;;;;;;11.17;5.07;;;;;;;;;;5056299;28;20179;-68
2022/11/01 04:00:21;;;;;;;7.53;4.90;;;;;;;;;;5057344;28;20206;-69
2022/11/01 04:02:48;;;;;;;9.27;5.20;;;;;;;;;;5057392;28;20202;-68
2022/11/01 04:05:14;;;;;;;11.87;4.87;;;;;;;;;;5057119;28;20237;-68
2022/11/01 04:07:40;;;;;;;7.00;4.60;;;;;;;;;;5055942;28;20546;-68
2022/11/01 04:10:06;;;;;;;8.03;4.70;;;;;;;;;;5055874;28;20179;-68
2022/11/01 04:12:32;;;;;;;9.13;4.63;;;;;;;;;;5055575;28;20220;-68
2022/11/01 04:20:33;;;;;;;13.80;4.80;;;;;;;;;;5055916;28;20258;-68
2022/11/01 04:23:05;;;;;;;9.47;5.17;;;;;;;;;;5055437;28;20198;-67
2022/11/01 04:25:32;;;;;;;9.33;4.23;;;;;;;;;;5055354;28;20202;-68
2022/11/01 04:27:58;;;;;;;10.00;4.57;;;;;;;;;;5055353;28;20576;-67
2022/11/01 04:30:28;;;;;;;6.53;4.20;;;;;;;;;;5054077;28;20174;-67
2022/11/01 04:32:54;;;;;;;8.20;4.40;;;;;;;;;;5055124;28;20198;-69
2022/11/01 04:35:21;;;;;;;10.20;4.37;;;;;;;;;;5055922;28;20183;-68
2022/11/01 04:37:47;;;;;;;9.37;3.70;;;;;;;;;;5053845;28;20222;-68
2022/11/01 04:40:13;;;;;;;7.13;3.90;;;;;;;;;;5055314;28;20174;-69
2022/11/01 04:42:40;;;;;;;8.97;4.27;;;;;;;;;;5055211;28;20256;-69
2022/11/01 04:45:07;;;;;;;6.53;4.37;;;;;;;;;;5055164;28;20209;-69
2022/11/01 04:47:33;;;;;;;11.17;3.97;;;;;;;;;;5055189;28;20174;-69
2022/11/01 04:49:59;;;;;;;10.27;3.63;;;;;;;;;;5052573;28;20709;-68
2022/11/01 04:52:25;;;;;;;8.60;3.60;;;;;;;;;;5054970;28;20225;-68
2022/11/01 04:54:50;;;;;;;7.50;3.87;;;;;;;;;;5053614;28;20315;-69
2022/11/01 04:57:23;;;;;;;5.00;3.37;;;;;;;;;;5053495;28;20218;-69
2022/11/01 04:59:50;;;;;;;4.87;3.30;;;;;;;;;;5055607;28;20501;-69
2022/11/01 05:02:16;;;;;;;6.43;3.40;;;;;;;;;;5054726;28;20639;-68
2022/11/01 05:04:41;;;;;;;6.07;3.40;;;;;;;;;;5054596;28;20701;-68
2022/11/01 05:07:07;;;;;;;4.20;2.90;;;;;;;;;;5054588;28;20186;-68
2022/11/01 05:09:33;;;;;;;11.90;3.10;;;;;;;;;;5053330;28;20326;-69
2022/11/01 05:11:59;;;;;;;5.47;3.10;;;;;;;;;;5054349;28;20544;-68
2022/11/01 05:14:25;;;;;;;6.43;3.17;;;;;;;;;;5054786;28;20175;-68
2022/11/01 05:16:54;;;;;;;4.93;3.33;;;;;;;;;;5054879;28;20539;-68
2022/11/01 05:19:20;;;;;;;7.67;2.97;;;;;;;;;;5054595;28;20183;-68
2022/11/01 05:21:46;;;;;;;4.43;2.80;;;;;;;;;;5054883;28;20242;-68
2022/11/01 05:24:12;;;;;;;6.90;3.00;;;;;;;;;;5054300;28;20252;-69
2022/11/01 05:26:38;;;;;;;6.40;2.73;;;;;;;;;;5054167;28;20260;-69
2022/11/01 05:29:04;;;;;;;8.13;2.77;;;;;;;;;;5052931;28;20209;-68
2022/11/01 05:31:30;;;;;;;4.47;2.70;;;;;;;;;;5052796;28;20646;-69
2022/11/01 05:33:56;;;;;;;5.67;2.33;;;;;;;;;;5054121;28;20737;-69
2022/11/01 05:36:22;;;;;;;3.67;2.33;;;;;;;;;;5052769;28;20178;-68
2022/11/01 05:38:48;;;;;;;3.10;2.20;;;;;;;;;;5053982;28;20673;-68
2022/11/01 05:41:14;;;;;;;5.57;2.40;;;;;;;;;;5052606;28;20178;-70
2022/11/01 05:43:40;;;;;;;3.23;2.10;;;;;;;;;;5053769;28;20206;-69
2022/11/01 05:46:06;;;;;;;2.93;2.00;;;;;;;;;;5052590;28;20190;-69
2022/11/01 05:48:32;;;;;;;3.07;2.00;;;;;;;;;;5053799;28;20179;-70
2022/11/01 05:50:58;;;;;;;3.37;2.40;;;;;;;;;;5054045;28;20653;-68
2022/11/01 05:53:24;;;;;;;4.17;2.00;;;;;;;;;;5053662;28;20230;-69
2022/11/01 05:55:50;;;;;;;4.50;2.07;;;;;;;;;;5053672;28;20555;-68
2022/11/01 05:58:16;;;;;;;7.67;2.20;;;;;;;;;;5053645;28;20189;-69
2022/11/01 06:00:42;;;;;;;2.83;2.00;;;;;;;;;;5053740;28;20179;-68
2022/11/01 06:03:08;;;;;;;6.03;1.97;;;;;;;;;;5053349;28;20605;-69
2022/11/01 06:05:34;;;;;;;3.30;2.00;;;;;;;;;;5053538;28;20212;-68
2022/11/01 06:08:01;;;;;;;2.80;2.00;;;;;;;;;;5053840;28;20179;-70
2022/11/01 06:12:58;;;;;;;3.33;1.87;;;;;;;;;;5052983;28;20210;-69
2022/11/01 06:15:25;;;;;;;5.27;2.20;;;;;;;;;;5053661;28;20654;-69
2022/11/01 06:17:57;;;;;;;2.63;1.70;;;;;;;;;;5053869;28;20209;-69
2022/11/01 06:20:24;;;;;;;3.30;2.07;;;;;;;;;;5053604;28;20530;-68
2022/11/01 06:22:50;;;;;;;3.07;2.10;;;;;;;;;;5053629;28;20175;-69
2022/11/01 06:25:16;;;;;;;6.60;2.20;;;;;;;;;;5035279;28;20210;-69
2022/11/01 06:27:42;;;;;;;5.53;2.30;;;;;;;;;;5053450;28;20260;-68
2022/11/01 06:30:08;;;;;;;3.57;2.10;;;;;;;;;;5035523;28;20181;-69
2022/11/01 06:32:34;;;;;;;5.03;2.00;;;;;;;;;;5053538;28;20603;-67
2022/11/01 06:35:00;;;;;;;3.10;2.10;;;;;;;;;;5053288;28;20262;-67
2022/11/01 06:37:26;;;;;;;6.93;1.90;;;;;;;;;;5035775;28;20187;-67
2022/11/01 06:39:52;;;;;;;4.50;2.00;;;;;;;;;;5053368;28;20179;-67
2022/11/01 06:42:18;;;;;;;6.37;2.00;;;;;;;;;;5035673;28;20248;-68
2022/11/01 06:44:43;;;;;;;4.63;1.93;;;;;;;;;;5053662;28;20592;-68
2022/11/01 06:47:11;;;;;;;5.90;1.90;;;;;;;;;;5053642;28;20638;-68
2022/11/01 06:49:37;;;;;;;6.50;1.83;;;;;;;;;;5053685;28;20170;-69
2022/11/01 06:52:04;;;;;;;6.27;2.10;;;;;;;;;;5053505;28;20602;-68
2022/11/01 06:54:30;;;;;;;10.57;2.00;;;;;;;;;;5053913;28;20269;-68
2022/11/01 06:56:56;;;;;;;7.47;1.87;;;;;;;;;;5053479;28;20178;-69
2022/11/01 06:59:22;;;;;;;3.87;1.40;;;;;;;;;;5054043;28;20193;-68
2022/11/01 07:01:48;;;;;;;1.77;1.33;;;;;;;;;;5035557;28;20206;-66
2022/11/01 07:04:14;;;;;;;3.13;1.97;;;;;;;;;;5054250;28;20201;-68
2022/11/01 07:06:40;;;;;;;3.83;2.00;;;;;;;;;;5053681;28;20206;-68
2022/11/01 07:09:06;;;;;;;6.00;1.67;;;;;;;;;;5035321;28;20205;-69
2022/11/01 07:11:32;;;;;;;2.77;1.70;;;;;;;;;;5053580;28;20237;-68
2022/11/01 07:13:58;;;;;;;3.87;1.50;;;;;;;;;;5054979;28;20178;-69
2022/11/01 07:16:25;;;;;;;3.37;1.60;;;;;;;;;;5038914;28;20261;-68
2022/11/01 07:18:51;;;;;;;3.87;1.77;;;;;;;;;;5038940;28;20244;-68
2022/11/01 07:21:17;;;;;;;2.97;1.70;;;;;;;;;;5056679;28;20284;-68
2022/11/01 07:23:43;;;;;;;3.07;1.50;;;;;;;;;;5038696;28;20182;-67
2022/11/01 07:26:09;;;;;;;4.30;1.83;;;;;;;;;;5039024;28;20233;-67
2022/11/01 07:28:36;;;;;;;3.07;1.73;;;;;;;;;;5038786;28;20581;-68
2022/11/01 07:31:02;;;;;;;2.60;1.33;;;;;;;;;;5038493;28;20201;-68
2022/11/01 07:33:28;;;;;;;3.63;1.73;;;;;;;;;;5056456;28;20175;-68
2022/11/01 07:35:54;;;;;;;3.20;1.60;;;;;;;;;;5056433;28;20179;-67
2022/11/01 07:38:20;;;;;;;4.00;1.60;;;;;;;;;;5056239;28;20182;-68
2022/11/01 07:40:48;;;;;;;4.10;1.50;;;;;;;;;;5056720;28;20280;-66
2022/11/01 07:43:16;;;;;;;4.77;1.70;;;;;;;;;;5039033;28;20277;-66
2022/11/01 07:45:42;;;;;;;5.87;1.23;;;;;;;;;;5038017;28;20216;-67
2022/11/01 07:48:10;;;;;;;2.93;1.40;;;;;;;;;;5038122;28;20183;-68
2022/11/01 07:50:36;;;;;;;2.50;1.40;;;;;;;;;;5038150;28;20673;-66
2022/11/01 07:53:09;;;;;;;5.63;1.70;;;;;;;;;;5055887;28;20175;-68
2022/11/01 07:55:35;;;;;;;3.33;1.60;;;;;;;;;;5056061;28;20198;-68
2022/11/01 07:58:02;;;;;;;3.13;1.70;;;;;;;;;;5038125;28;20647;-68
2022/11/01 08:00:28;;;;;;;2.77;1.27;;;;;;;;;;5037918;28;20231;-67
2022/11/01 08:03:01;;;;;;;7.47;1.90;;;;;;;;;;5056130;28;20182;-68
2022/11/01 08:05:27;;;;;;;6.77;2.03;;;;;;;;;;5055789;28;20229;-65
2022/11/01 08:07:53;;;;;;;4.53;1.60;;;;;;;;;;5037877;28;20186;-68
2022/11/01 08:10:20;;;;;;;4.97;1.67;;;;;;;;;;5037859;28;20179;-66
2022/11/01 08:12:46;;;;;;;3.27;1.37;;;;;;;;;;5055521;28;20206;-67
2022/11/01 08:15:12;;;;;;;4.87;1.80;;;;;;;;;;5055863;28;20179;-67
2022/11/01 08:17:38;;;;;;;7.47;2.13;;;;;;;;;;5055839;28;20186;-68
2022/11/01 08:20:05;;;;;;;14.57;2.87;;;;;;;;;;5037734;28;20202;-68
2022/11/01 08:22:31;;;;;;;4.50;1.83;;;;;;;;;;5037755;28;20198;-67
2022/11/01 08:24:57;;;;;;;4.23;2.00;;;;;;;;;;5055428;28;20566;-68
2022/11/01 08:27:23;;;;;;;4.30;1.97;;;;;;;;;;5055510;28;20190;-68
2022/11/01 08:29:49;;;;;;;10.07;1.90;;;;;;;;;;5037482;28;20182;-68
2022/11/01 08:32:19;;;;;;;6.63;2.30;;;;;;;;;;5037478;28;20682;-68
2022/11/01 08:34:45;;;;;;;10.70;2.40;;;;;;;;;;5055201;28;20179;-67
2022/11/01 08:37:11;;;;;;;7.43;2.10;;;;;;;;;;5055247;28;20236;-67
2022/11/01 08:39:37;;;;;;;8.13;2.70;;;;;;;;;;5055211;28;20186;-67
2022/11/01 08:42:04;;;;;;;6.57;2.30;;;;;;;;;;5037163;28;20702;-67
2022/11/01 08:44:31;;;;;;;8.27;2.33;;;;;;;;;;5037811;28;20202;-67
2022/11/01 08:46:59;;;;;;;11.30;3.13;;;;;;;;;;5037147;28;20182;-67
2022/11/01 08:49:26;;;;;;;8.50;2.77;;;;;;;;;;5037403;28;20593;-66
2022/11/01 08:51:52;;;;;;;9.00;2.40;;;;;;;;;;5054670;28;20712;-66
2022/11/01 08:54:18;;;;;;;17.37;2.77;;;;;;;;;;5036710;28;20182;-67
2022/11/01 08:56:44;;;;;;;11.27;2.40;;;;;;;;;;5055018;28;20189;-67
2022/11/01 08:59:09;;;;;;;7.43;2.57;;;;;;;;;;5054698;28;20189;-64
2022/11/01 09:01:37;;;;;;;13.70;2.40;;;;;;;;;;5036565;28;20198;-67
2022/11/01 09:04:03;;;;;;;7.57;2.57;;;;;;;;;;5037230;28;20202;-65
2022/11/01 09:06:29;;;;;;;10.60;2.67;;;;;;;;;;5054822;28;20175;-67
2022/11/01 09:08:55;;;;;;;9.03;2.70;;;;;;;;;;5054745;28;20171;-67
2022/11/01 09:11:22;;;;;;;14.87;3.10;;;;;;;;;;5054269;28;20710;-65
2022/11/01 09:13:48;;;;;;;10.23;3.13;;;;;;;;;;5054337;28;20200;-67
2022/11/01 09:16:15;;;;;;;8.77;2.20;;;;;;;;;;5054494;28;20574;-66
2022/11/01 09:18:41;;;;;;;13.70;3.50;;;;;;;;;;5054356;28;20217;-67
2022/11/01 09:21:07;;;;;;;6.73;2.60;;;;;;;;;;5054235;28;20697;-67
2022/11/01 09:23:34;;;;;;;8.17;2.57;;;;;;;;;;5054588;28;20174;-67
2022/11/01 09:26:04;;;;;;;9.30;2.90;;;;;;;;;;5054318;28;20206;-68
2022/11/01 09:28:30;;;;;;;6.33;2.20;;;;;;;;;;5054151;28;20171;-67
2022/11/01 09:30:56;;;;;;;5.77;2.47;;;;;;;;;;5054202;28;20221;-66
2022/11/01 09:33:23;;;;;;;15.07;3.00;;;;;;;;;;5054151;28;20178;-68
2022/11/01 09:35:52;;;;;;;9.57;2.30;;;;;;;;;;5035920;28;20189;-68
2022/11/01 09:38:18;;;;;;;12.83;3.27;;;;;;;;;;5036232;28;20183;-67
2022/11/01 09:40:45;;;;;;;10.80;2.63;;;;;;;;;;5036450;28;20260;-66
2022/11/01 09:43:16;;;;;;;11.40;2.83;;;;;;;;;;5037578;28;20273;-66
2022/11/01 09:45:42;;;;;;;8.80;2.50;;;;;;;;;;5054223;28;20194;-65
2022/11/01 09:48:09;;;;;;;10.23;3.07;;;;;;;;;;5035946;28;20183;-65
2022/11/01 09:50:37;;;;;;;8.20;2.27;;;;;;;;;;5035828;28;20179;-64
2022/11/01 09:53:06;;;;;;;8.77;2.30;;;;;;;;;;5053860;28;20690;-68
2022/11/01 09:55:48;;;;;;;12.27;2.83;;;;;;;;;;5054047;28;20243;-65
2022/11/01 09:58:14;;;;;;;5.87;2.70;;;;;;;;;;5035959;28;20228;-66
2022/11/01 10:00:55;;;;;;;10.50;2.77;;;;;;;;;;5054921;28;20182;-64
2022/11/01 10:03:38;;;;;;;9.00;2.53;;;;;;;;;;5035708;28;20177;-64
2022/11/01 10:06:07;;;;;;;12.30;2.53;;;;;;;;;;5053545;28;20615;-65
2022/11/01 10:08:51;;;;;;;8.23;2.10;;;;;;;;;;5035576;28;20178;-65
2022/11/01 10:11:34;;;;;;;9.83;2.33;;;;;;;;;;5035775;28;20217;-66
2022/11/01 10:14:16;;;;;;;7.23;2.40;;;;;;;;;;5053961;28;20162;-65
2022/11/01 10:16:50;;;;;;;8.37;2.30;;;;;;;;;;5054036;28;20170;-67
2022/11/01 10:19:17;;;;;;;10.37;2.60;;;;;;;;;;5053590;28;20158;-65
2022/11/01 10:21:49;;;;;;;5.33;2.10;;;;;;;;;;5053191;28;20199;-65
2022/11/01 10:24:19;;;;;;;5.90;1.87;;;;;;;;;;5053009;28;20287;-65
2022/11/01 10:26:47;;;;;;;8.43;2.20;;;;;;;;;;5053109;28;20589;-65
2022/11/01 10:29:32;;;;;;;8.43;2.57;;;;;;;;;;5053244;28;20174;-65
2022/11/01 10:31:59;;;;;;;8.37;2.20;;;;;;;;;;5052890;28;20663;-65
2022/11/01 10:34:24;;;;;;;11.57;2.60;;;;;;;;;;5035269;28;20182;-65
2022/11/01 10:36:52;;;;;;;11.20;2.47;;;;;;;;;;5052998;28;20232;-65
2022/11/01 10:39:36;;;;;;;10.23;2.70;;;;;;;;;;5053080;28;20178;-65
2022/11/01 10:42:07;;;;;;;6.97;1.87;;;;;;;;;;5052932;28;20693;-65
2022/11/01 10:44:37;;;;;;;7.20;2.17;;;;;;;;;;5053308;28;20277;-65
2022/11/01 10:47:05;;;;;;;10.63;2.90;;;;;;;;;;5053049;28;20175;-65
2022/11/01 10:49:33;;;;;;;5.90;1.93;;;;;;;;;;5055530;28;20174;-65
2022/11/01 10:52:02;;;;;;;7.07;2.30;;;;;;;;;;5056867;28;20221;-66
2022/11/01 10:54:29;;;;;;;5.53;1.80;;;;;;;;;;5057094;28;20192;-64
2022/11/01 10:56:59;;;;;;;8.50;2.13;;;;;;;;;;5057468;28;20177;-66
2022/11/01 10:59:46;;;;;;;11.67;3.07;;;;;;;;;;5039009;28;20209;-63
2022/11/01 11:02:18;;;;;;;11.33;2.23;;;;;;;;;;5039093;28;20206;-65
2022/11/01 11:04:44;;;;;;;12.30;2.63;;;;;;;;;;5057408;28;20202;-66
2022/11/01 11:07:14;;;;;;;11.53;2.70;;;;;;;;;;5039313;28;20178;-65
2022/11/01 11:09:40;;;;;;;11.77;3.67;;;;;;;;;;5041268;28;20182;-65
2022/11/01 11:12:11;;;;;;;9.53;2.43;;;;;;;;;;5040326;28;20785;-64
2022/11/01 11:14:37;;;;;;;8.43;2.63;;;;;;;;;;5038828;28;20623;-66
2022/11/01 11:17:03;;;;;;;7.50;2.30;;;;;;;;;;5056568;28;20339;-66
2022/11/01 11:19:29;;;;;;;9.77;2.60;;;;;;;;;;5038781;28;20182;-66
2022/11/01 11:21:56;;;;;;;6.57;2.23;;;;;;;;;;5038621;28;20213;-65
2022/11/01 11:24:23;;;;;;;5.80;2.40;;;;;;;;;;5056523;28;20201;-66
2022/11/01 11:26:51;;;;;;;5.47;2.10;;;;;;;;;;5056908;28;20204;-66
2022/11/01 11:29:37;;;;;;;11.83;2.73;;;;;;;;;;5056416;28;20174;-65
2022/11/01 11:32:04;;;;;;;6.60;2.13;;;;;;;;;;5039132;28;20225;-65
2022/11/01 11:34:32;;;;;;;6.23;2.57;;;;;;;;;;5056230;28;20209;-65
2022/11/01 11:37:00;;;;;;;9.30;2.47;;;;;;;;;;5038330;28;20206;-64
2022/11/01 11:39:30;;;;;;;11.17;2.70;;;;;;;;;;5056384;28;20260;-66
2022/11/01 11:42:14;;;;;;;13.33;3.23;;;;;;;;;;5056245;28;20206;-65
2022/11/01 11:44:42;;;;;;;11.07;2.87;;;;;;;;;;5056031;28;20569;-66
2022/11/01 11:47:24;;;;;;;4.63;1.87;;;;;;;;;;5038470;28;20197;-63
2022/11/01 11:49:52;;;;;;;10.40;2.43;;;;;;;;;;5056228;28;20171;-65
2022/11/01 11:52:20;;;;;;;12.67;3.27;;;;;;;;;;5038101;28;20210;-65
2022/11/01 11:54:46;;;;;;;7.73;2.30;;;;;;;;;;5055955;28;20179;-65
2022/11/01 11:57:15;;;;;;;9.37;2.90;;;;;;;;;;5055810;28;20182;-64
2022/11/01 11:59:42;;;;;;;9.23;2.57;;;;;;;;;;5037505;28;20535;-65
2022/11/01 12:02:27;;;;;;;11.87;2.90;;;;;;;;;;5055681;28;20198;-65
2022/11/01 12:05:16;;;;;;;8.77;2.80;;;;;;;;;;5055853;28;20238;-65
2022/11/01 12:07:47;;;;;;;12.27;3.30;;;;;;;;;;5025556;28;20277;-65
2022/11/01 12:10:32;;;;;;;9.33;2.43;;;;;;;;;;5055541;28;20170;-65
2022/11/01 12:12:58;;;;;;;10.13;2.83;;;;;;;;;;5055531;28;20233;-65
2022/11/01 12:15:26;;;;;;;14.60;3.03;;;;;;;;;;5055650;28;20554;-65
2022/11/01 12:17:52;;;;;;;13.17;3.13;;;;;;;;;;5080447;22;20238;-71
2022/11/01 12:20:19;;;;;;;10.07;2.60;;;;;;;;;;5055481;28;20206;-70
2022/11/01 12:23:02;;;;;;;11.87;2.90;;;;;;;;;;5055403;28;20638;-70
2022/11/01 12:25:28;;;;;;;5.87;2.00;;;;;;;;;;5037393;28;20202;-70
2022/11/01 12:27:59;;;;;;;16.27;3.33;;;;;;;;;;5055216;28;20263;-70
2022/11/01 12:30:26;;;;;;;6.10;2.33;;;;;;;;;;5055391;28;20179;-70
2022/11/01 12:32:56;;;;;;;13.63;3.20;;;;;;;;;;5037709;28;20281;-70
2022/11/01 12:35:51;;;;;;;9.00;2.83;;;;;;;;;;5055388;28;20635;-70
2022/11/01 12:38:35;;;;;;;8.67;2.70;;;;;;;;;;5038318;28;20245;-71
2022/11/01 12:41:24;;;;;;;6.50;2.57;;;;;;;;;;5055015;28;20185;-69
2022/11/01 12:43:56;;;;;;;9.73;2.73;;;;;;;;;;5001052;28;20201;-70
2022/11/01 12:46:30;;;;;;;9.10;2.67;;;;;;;;;;5055324;28;20298;-70
2022/11/01 12:48:59;;;;;;;10.53;2.97;;;;;;;;;;5055066;28;20165;-70
2022/11/01 12:51:30;;;;;;;10.53;2.70;;;;;;;;;;5037071;28;20186;-70
2022/11/01 12:54:17;;;;;;;8.97;2.63;;;;;;;;;;5036904;28;20265;-70
2022/11/01 12:56:43;;;;;;;8.37;2.40;;;;;;;;;;5055027;28;20765;-70
2022/11/01 12:59:13;;;;;;;6.90;2.30;;;;;;;;;;5055059;28;20202;-70
2022/11/01 13:01:54;;;;;;;12.20;2.67;;;;;;;;;;5054843;28;20551;-70
2022/11/01 13:04:19;;;;;;;12.20;2.80;;;;;;;;;;5036842;28;20202;-70
2022/11/01 13:07:01;;;;;;;12.80;3.07;;;;;;;;;;5036858;28;20698;-70
2022/11/01 13:09:42;;;;;;;12.23;2.47;;;;;;;;;;5037079;28;20514;-69
2022/11/01 13:12:33;;;;;;;8.37;2.30;;;;;;;;;;5053773;28;20250;-69
2022/11/01 13:15:14;;;;;;;5.67;2.03;;;;;;;;;;5054638;28;20539;-70
2022/11/01 13:17:44;;;;;;;4.63;2.33;;;;;;;;;;5054491;28;20210;-70
2022/11/01 13:20:29;;;;;;;9.27;2.73;;;;;;;;;;5054765;28;20178;-69
2022/11/01 13:22:57;;;;;;;9.70;2.63;;;;;;;;;;5054548;28;20658;-69
2022/11/01 13:25:30;;;;;;;6.50;2.43;;;;;;;;;;5054013;28;20549;-70
2022/11/01 13:28:03;;;;;;;10.87;2.50;;;;;;;;;;5054163;28;20198;-69
2022/11/01 13:30:30;;;;;;;11.73;2.70;;;;;;;;;;5054441;28;20166;-70
2022/11/01 13:32:58;;;;;;;12.37;2.93;;;;;;;;;;5036125;28;20179;-69
2022/11/01 13:35:46;;;;;;;9.13;2.53;;;;;;;;;;5054170;28;20205;-70
2022/11/01 13:38:12;;;;;;;10.43;2.63;;;;;;;;;;5035834;28;20214;-70
2022/11/01 13:40:49;;;;;;;13.90;2.57;;;;;;;;;;5035947;28;20605;-69
2022/11/01 13:43:20;;;;;;;8.37;2.63;;;;;;;;;;5054068;28;20215;-70
2022/11/01 13:45:46;;;;;;;11.07;2.50;;;;;;;;;;5035802;28;20670;-70
2022/11/01 13:48:18;;;;;;;6.90;2.07;;;;;;;;;;5035775;28;20198;-69
2022/11/01 13:50:52;;;;;;;8.43;2.20;;;;;;;;;;5053844;28;20545;-70
2022/11/01 13:53:27;;;;;;;7.60;2.70;;;;;;;;;;5058257;28;20166;-70
2022/11/01 13:55:57;;;;;;;5.47;2.33;;;;;;;;;;5058395;28;20181;-70
2022/11/01 13:58:24;;;;;;;9.17;2.30;;;;;;;;;;5058174;28;20252;-69
2022/11/01 14:00:53;;;;;;;7.50;2.60;;;;;;;;;;5038139;28;20277;-70
2022/11/01 14:03:19;;;;;;;7.77;2.50;;;;;;;;;;5053707;28;20257;-70
2022/11/01 14:05:45;;;;;;;12.13;3.03;;;;;;;;;;5053438;28;20237;-69
2022/11/01 14:08:13;;;;;;;7.90;2.30;;;;;;;;;;5053703;28;20225;-70
2022/11/01 14:10:38;;;;;;;8.87;2.30;;;;;;;;;;5053414;28;20183;-69
2022/11/01 14:13:09;;;;;;;9.43;2.73;;;;;;;;;;5053583;28;20179;-69
2022/11/01 14:15:38;;;;;;;8.73;2.30;;;;;;;;;;5053350;28;20202;-69
2022/11/01 14:18:06;;;;;;;10.97;2.47;;;;;;;;;;5035441;28;20226;-70
2022/11/01 14:20:32;;;;;;;7.87;2.13;;;;;;;;;;5035638;28;20182;-69
2022/11/01 14:22:58;;;;;;;9.07;2.60;;;;;;;;;;5052980;28;20620;-69
2022/11/01 14:25:24;;;;;;;7.17;2.37;;;;;;;;;;5053673;28;20570;-69
2022/11/01 14:28:10;;;;;;;11.83;2.50;;;;;;;;;;5035986;28;20204;-69
2022/11/01 14:30:42;;;;;;;5.77;2.00;;;;;;;;;;5035809;28;20231;-69
2022/11/01 14:33:11;;;;;;;6.80;2.23;;;;;;;;;;5035400;28;20163;-70
2022/11/01 14:35:38;;;;;;;12.10;2.80;;;;;;;;;;5053149;28;20205;-70
2022/11/01 14:38:06;;;;;;;6.20;2.37;;;;;;;;;;5053688;28;20666;-69
2022/11/01 14:40:51;;;;;;;13.00;2.90;;;;;;;;;;5052932;28;20269;-69
2022/11/01 14:43:22;;;;;;;7.83;2.43;;;;;;;;;;5052936;28;20193;-70
2022/11/01 14:45:54;;;;;;;8.83;2.00;;;;;;;;;;5052859;28;20259;-70
2022/11/01 14:48:30;;;;;;;6.10;2.57;;;;;;;;;;5053033;28;20663;-69
2022/11/01 14:50:59;;;;;;;10.60;2.93;;;;;;;;;;5053064;28;20159;-69
2022/11/01 14:53:28;;;;;;;8.83;2.23;;;;;;;;;;5052789;28;20205;-69
2022/11/01 14:56:13;;;;;;;9.63;2.97;;;;;;;;;;5034943;28;20558;-70